Time;durP1;ratioP1;P1;durP2;ratioP2;P2;SDS_P1;SDS_P2;PMS_P1;PMS_P2;Temp;Humidity;BMP_temperature;BMP_pressure;BME280_temperature;BME280_humidity;BME280_pressure;Samples;Min_cycle;Max_cycle;Signal;HPM_P1;HPM_P2
2021/08/05 00:01:57;;;;;;;45.20;29.42;;;;;;;15.14;82.78;101316.97;4981976;28;20025;-52
2021/08/05 00:04:23;;;;;;;46.17;30.30;;;;;;;15.11;82.95;101316.97;4968231;28;20069;-47
2021/08/05 00:06:48;;;;;;;48.65;31.55;;;;;;;15.09;83.18;101316.09;4977103;28;20231;-47
2021/08/05 00:09:13;;;;;;;40.42;25.77;;;;;;;15.09;82.99;101315.22;4975252;28;20120;-47
2021/08/05 00:11:39;;;;;;;47.17;29.80;;;;;;;15.07;83.33;101307.31;4978532;28;20536;-49
2021/08/05 00:14:04;;;;;;;48.85;28.75;;;;;;;15.08;83.38;101306.44;4973496;28;20058;-53
2021/08/05 00:16:29;;;;;;;43.08;29.00;;;;;;;15.08;83.21;101314.31;4969471;28;20085;-48
2021/08/05 00:18:55;;;;;;;50.42;32.10;;;;;;;15.06;83.32;101302.09;4976380;28;20033;-49
2021/08/05 00:21:20;;;;;;;49.08;30.20;;;;;;;15.06;83.32;101299.47;4973187;28;20028;-47
2021/08/05 00:23:46;;;;;;;52.03;30.65;;;;;;;15.05;83.52;101293.34;4957930;28;20046;-49
2021/08/05 00:26:12;;;;;;;47.03;30.17;;;;;;;15.04;83.46;101302.06;4978972;28;20066;-47
2021/08/05 00:28:37;;;;;;;44.95;27.52;;;;;;;14.96;83.49;101301.16;4972961;28;20038;-48
2021/08/05 00:31:04;;;;;;;45.80;29.48;;;;;;;14.93;83.81;101291.56;4980087;28;20200;-50
2021/08/05 00:33:30;;;;;;;48.53;30.17;;;;;;;14.98;83.68;101291.56;4969328;28;20026;-50
2021/08/05 00:35:55;;;;;;;51.38;32.28;;;;;;;15.01;83.61;101288.94;4971717;28;20034;-49
2021/08/05 00:38:20;;;;;;;48.40;30.58;;;;;;;15.02;83.55;101290.69;4974615;28;20402;-46
2021/08/05 00:40:46;;;;;;;47.47;30.30;;;;;;;15.00;83.36;101290.66;4976572;28;20129;-47
2021/08/05 00:43:12;;;;;;;50.63;30.45;;;;;;;14.98;83.57;101284.56;4971986;28;20034;-48
2021/08/05 00:45:38;;;;;;;44.90;28.35;;;;;;;14.97;83.56;101290.69;4979095;28;20034;-50
2021/08/05 00:48:05;;;;;;;47.20;29.88;;;;;;;14.94;83.41;101290.66;4975007;28;20110;-48
2021/08/05 00:50:30;;;;;;;49.28;31.30;;;;;;;14.94;83.31;101280.16;4973896;28;20129;-48
2021/08/05 00:52:56;;;;;;;44.42;29.27;;;;;;;14.93;83.21;101280.19;4972826;28;20406;-48
2021/08/05 00:55:21;;;;;;;48.90;30.85;;;;;;;14.82;83.56;101279.28;4969223;28;20038;-46
2021/08/05 00:57:47;;;;;;;46.83;29.73;;;;;;;14.73;83.76;101276.63;4974203;28;20578;-46
2021/08/05 01:00:13;;;;;;;48.63;29.70;;;;;;;14.78;83.54;101282.75;4970427;28;20027;-48
2021/08/05 01:02:44;;;;;;;41.95;26.77;;;;;;;14.74;83.88;101270.50;4973044;28;20069;-48
2021/08/05 01:05:10;;;;;;;49.28;31.02;;;;;;;14.69;83.99;101269.63;4974457;28;20022;-47
2021/08/05 01:07:48;;;;;;;50.05;31.58;;;;;;;14.63;84.15;101275.72;4974901;28;20041;-47
2021/08/05 01:10:17;;;;;;;53.30;31.42;;;;;;;14.58;84.29;101272.19;4973411;28;20644;-47
2021/08/05 01:12:47;;;;;;;47.47;29.20;;;;;;;14.55;84.47;101270.44;4986365;28;20427;-51
2021/08/05 01:15:14;;;;;;;38.30;25.83;;;;;;;14.55;84.19;101270.44;4978472;28;20037;-47
2021/08/05 01:17:45;;;;;;;50.13;30.85;;;;;;;14.51;84.22;101270.44;4971518;28;20031;-47
2021/08/05 01:20:12;;;;;;;49.15;29.33;;;;;;;14.50;84.32;101260.81;4961627;28;20396;-49
2021/08/05 01:23:13;;;;;;;52.22;31.65;;;;;;;14.48;84.30;101265.16;4983165;28;20554;-46
2021/08/05 01:25:58;;;;;;;48.65;29.02;;;;;;;14.42;84.24;101259.91;4974279;28;20042;-48
2021/08/05 01:28:23;;;;;;;48.58;29.00;;;;;;;14.39;84.31;101259.91;4990246;28;20144;-49
2021/08/05 01:30:51;;;;;;;50.05;30.50;;;;;;;14.35;84.27;101258.06;4971301;28;20030;-48
2021/08/05 01:33:18;;;;;;;42.60;26.65;;;;;;;14.32;84.38;101263.34;4988402;28;20027;-48
2021/08/05 01:35:44;;;;;;;52.80;31.17;;;;;;;14.38;84.24;101255.53;4975288;28;20624;-49
2021/08/05 01:38:14;;;;;;;48.65;29.25;;;;;;;14.33;84.64;101254.59;4986830;28;20022;-48
2021/08/05 01:40:40;;;;;;;50.67;30.85;;;;;;;14.31;84.62;101253.72;4966357;28;20462;-51
2021/08/05 01:43:06;;;;;;;52.85;31.60;;;;;;;14.29;84.38;101247.56;4975106;28;20030;-49
2021/08/05 01:45:31;;;;;;;52.60;32.72;;;;;;;14.27;84.75;101250.22;4963767;28;20030;-48
2021/08/05 01:47:57;;;;;;;58.63;33.90;;;;;;;14.25;84.51;101254.56;4972070;28;20300;-51
2021/08/05 01:50:23;;;;;;;50.28;29.95;;;;;;;14.24;84.49;101250.19;4988252;28;20038;-48
2021/08/05 01:52:48;;;;;;;58.55;31.92;;;;;;;14.28;84.10;101245.81;4967935;28;20389;-49
2021/08/05 01:55:15;;;;;;;56.80;32.85;;;;;;;14.23;84.20;101248.41;4975562;28;20453;-48
2021/08/05 01:57:40;;;;;;;56.50;34.15;;;;;;;14.20;84.21;101245.81;4970391;28;20038;-48
2021/08/05 02:00:07;;;;;;;53.53;31.30;;;;;;;14.20;84.36;101245.81;4972665;28;20442;-49
2021/08/05 02:02:33;;;;;;;47.25;27.95;;;;;;;14.19;84.25;101244.03;4973614;28;20462;-48
2021/08/05 02:05:04;;;;;;;49.03;28.75;;;;;;;14.21;84.25;101245.78;4970994;28;20031;-46
2021/08/05 02:07:59;;;;;;;45.50;28.17;;;;;;;14.18;84.07;101237.91;4971457;28;20398;-49
2021/08/05 02:10:31;;;;;;;54.17;31.17;;;;;;;14.14;84.17;101232.66;4981126;28;20038;-47
2021/08/05 02:13:01;;;;;;;54.30;32.47;;;;;;;14.12;84.16;101239.63;4974243;28;20034;-46
2021/08/05 02:15:27;;;;;;;54.95;31.30;;;;;;;14.08;83.91;101232.63;4970881;28;20417;-47
2021/08/05 02:17:53;;;;;;;59.05;33.03;;;;;;;14.04;84.17;101226.47;4986849;28;20034;-47
2021/08/05 02:20:18;;;;;;;52.13;31.30;;;;;;;14.03;84.27;101232.59;4972693;28;20456;-49
2021/08/05 02:22:45;;;;;;;49.58;28.23;;;;;;;14.02;84.24;101224.75;4970581;28;20038;-48
2021/08/05 02:25:11;;;;;;;53.80;31.73;;;;;;;13.99;84.01;101224.72;4968919;28;20034;-51
2021/08/05 02:27:39;;;;;;;59.00;33.60;;;;;;;13.95;84.13;101222.94;4973325;28;20042;-49
2021/08/05 02:30:05;;;;;;;58.45;33.70;;;;;;;13.94;84.23;101219.44;4984094;28;20522;-48
2021/08/05 02:32:31;;;;;;;42.42;25.02;;;;;;;13.96;84.20;101214.22;4979866;28;20121;-51
2021/08/05 02:34:59;;;;;;;58.95;33.42;;;;;;;13.96;84.24;101211.59;4972203;28;20036;-48
2021/08/05 02:37:24;;;;;;;55.33;32.42;;;;;;;13.94;84.47;101208.09;4968394;28;20069;-47
2021/08/05 02:39:49;;;;;;;49.97;30.45;;;;;;;13.90;84.36;101214.19;4972158;28;20137;-51
2021/08/05 02:42:15;;;;;;;54.28;31.60;;;;;;;13.88;84.41;101213.28;4968765;28;20033;-48
2021/08/05 02:44:40;;;;;;;55.63;31.10;;;;;;;13.79;84.62;101206.25;4972801;28;20026;-48
2021/08/05 02:47:06;;;;;;;46.55;27.75;;;;;;;13.73;84.54;101207.09;4966307;28;20088;-47
2021/08/05 02:49:32;;;;;;;53.13;30.30;;;;;;;13.73;84.41;101206.22;4977992;28;20034;-47
2021/08/05 02:51:57;;;;;;;64.32;33.97;;;;;;;13.71;84.73;101203.59;4961327;28;20108;-46
2021/08/05 02:54:23;;;;;;;59.92;33.00;;;;;;;13.70;84.90;101203.59;4970661;28;20037;-47
2021/08/05 02:56:49;;;;;;;50.83;29.23;;;;;;;13.75;84.50;101199.25;4985141;28;20072;-47
2021/08/05 02:59:14;;;;;;;56.28;32.47;;;;;;;13.76;84.25;101203.63;4981605;28;20085;-49
2021/08/05 03:01:40;;;;;;;58.55;33.20;;;;;;;13.73;84.28;101198.34;4989002;28;20101;-49
2021/08/05 03:04:06;;;;;;;56.42;32.00;;;;;;;13.69;84.25;101194.84;4973394;28;20035;-48
2021/08/05 03:06:31;;;;;;;55.47;32.60;;;;;;;13.65;84.24;101192.22;4967906;28;20029;-51
2021/08/05 03:08:57;;;;;;;54.72;31.38;;;;;;;13.63;84.35;101196.56;4982619;28;20037;-47
2021/08/05 03:11:22;;;;;;;57.17;32.97;;;;;;;13.60;84.44;101194.78;4972980;28;20117;-49
2021/08/05 03:13:48;;;;;;;61.30;35.38;;;;;;;13.58;84.43;101198.28;4987541;28;20034;-52
2021/08/05 03:16:16;;;;;;;61.67;33.75;;;;;;;13.57;84.66;101194.78;4981947;28;20707;-49
2021/08/05 03:18:41;;;;;;;54.58;30.77;;;;;;;13.58;84.75;101193.03;4972315;28;20564;-47
2021/08/05 03:21:07;;;;;;;60.83;35.03;;;;;;;13.58;84.84;101193.03;4966557;28;20017;-48
2021/08/05 03:23:32;;;;;;;49.35;27.83;;;;;;;13.58;84.52;101193.91;4970890;28;20049;-49
2021/08/05 03:25:58;;;;;;;58.47;32.55;;;;;;;13.59;84.63;101198.28;4972105;28;20505;-48
2021/08/05 03:28:23;;;;;;;53.67;30.13;;;;;;;13.60;84.48;101201.78;4968898;28;20035;-47
2021/08/05 03:30:48;;;;;;;55.15;31.23;;;;;;;13.60;84.53;101196.56;4970074;28;20045;-48
2021/08/05 03:33:14;;;;;;;57.50;32.00;;;;;;;13.60;84.88;101196.56;4964464;28;20044;-48
2021/08/05 03:35:39;;;;;;;59.97;32.92;;;;;;;13.60;84.69;101191.31;4971722;28;20031;-46
2021/08/05 03:38:05;;;;;;;61.53;33.80;;;;;;;13.61;84.69;101190.41;4982626;28;20542;-51
2021/08/05 03:40:30;;;;;;;53.55;31.58;;;;;;;13.61;84.80;101190.41;4972628;28;20029;-50
2021/08/05 03:42:56;;;;;;;63.90;33.65;;;;;;;13.61;84.60;101185.19;4964190;28;20034;-48
2021/08/05 03:45:21;;;;;;;63.13;35.47;;;;;;;13.61;84.65;101182.56;4972684;28;20614;-48
2021/08/05 03:47:47;;;;;;;57.47;31.42;;;;;;;13.64;84.52;101182.59;4972291;28;20527;-48
2021/08/05 03:50:12;;;;;;;61.55;33.40;;;;;;;13.66;84.68;101181.72;4964299;28;20030;-47
2021/08/05 03:52:37;;;;;;;64.28;34.63;;;;;;;13.71;84.83;101179.16;4972551;28;20045;-52
2021/08/05 03:55:04;;;;;;;69.30;36.38;;;;;;;13.75;84.97;101176.53;4971062;28;20026;-49
2021/08/05 03:57:30;;;;;;;71.55;38.08;;;;;;;13.81;85.14;101167.84;4972325;28;20144;-48
2021/08/05 03:59:55;;;;;;;74.15;37.42;;;;;;;13.88;85.18;101171.38;4977933;28;20042;-46
2021/08/05 04:02:20;;;;;;;70.47;37.80;;;;;;;13.80;85.56;101169.56;4970612;28;20018;-48
2021/08/05 04:04:46;;;;;;;69.57;36.78;;;;;;;13.78;85.87;101168.69;4973723;28;20111;-46
2021/08/05 04:07:11;;;;;;;61.40;34.03;;;;;;;13.79;85.79;101170.44;4970859;28;20045;-47
2021/08/05 04:09:37;;;;;;;64.10;36.42;;;;;;;13.79;85.47;101169.56;4972573;28;20058;-50
2021/08/05 04:12:02;;;;;;;61.40;34.63;;;;;;;13.79;85.53;101162.56;4973489;28;20027;-47
2021/08/05 04:14:28;;;;;;;58.45;33.38;;;;;;;13.77;85.46;101163.47;4975317;28;20121;-48
2021/08/05 04:16:53;;;;;;;60.40;34.47;;;;;;;13.75;85.47;101159.94;4976646;28;20085;-50
2021/08/05 04:19:18;;;;;;;65.05;35.03;;;;;;;13.78;85.46;101163.44;4974274;28;20054;-49
2021/08/05 04:21:44;;;;;;;65.07;36.13;;;;;;;13.83;85.67;101163.50;4977136;28;20018;-47
2021/08/05 04:24:09;;;;;;;66.47;37.20;;;;;;;13.89;85.80;101157.41;4972470;28;20383;-48
2021/08/05 04:26:34;;;;;;;73.10;34.38;;;;;;;13.94;85.65;101161.78;4977572;28;20049;-46
2021/08/05 04:29:00;;;;;;;69.13;37.42;;;;;;;13.98;85.42;101157.41;4971640;28;20057;-48
2021/08/05 04:31:25;;;;;;;71.20;39.35;;;;;;;14.02;85.41;101160.09;4974302;28;20117;-52
2021/08/05 04:33:50;;;;;;;67.10;36.80;;;;;;;14.09;85.77;101155.69;4969024;28;20026;-48
2021/08/05 04:36:16;;;;;;;66.93;37.35;;;;;;;14.27;85.35;101158.41;4974506;28;20042;-48
2021/08/05 04:38:41;;;;;;;70.75;38.72;;;;;;;14.37;85.26;101157.59;4973868;28;20105;-49
2021/08/05 04:41:06;;;;;;;68.82;37.92;;;;;;;14.47;84.95;101163.72;4965473;28;20466;-47
2021/08/05 04:43:32;;;;;;;62.33;36.40;;;;;;;14.52;84.91;101154.97;4975565;28;20030;-48
2021/08/05 04:45:57;;;;;;;72.40;38.75;;;;;;;14.45;85.38;101152.38;4970223;28;20030;-50
2021/08/05 04:48:27;;;;;;;74.55;41.55;;;;;;;14.61;84.79;101152.38;4972080;28;20027;-47
2021/08/05 04:50:53;;;;;;;69.53;39.75;;;;;;;14.71;84.63;101155.88;4966190;28;21261;-49
2021/08/05 04:53:18;;;;;;;73.47;39.47;;;;;;;14.80;84.50;101155.91;4965755;28;20027;-47
2021/08/05 04:55:44;;;;;;;77.15;40.92;;;;;;;14.89;84.54;101152.41;4973793;28;20118;-48
2021/08/05 04:58:09;;;;;;;75.15;42.15;;;;;;;15.01;84.36;101160.25;4973951;28;20037;-51
2021/08/05 05:00:37;;;;;;;68.13;39.03;;;;;;;15.17;84.40;101155.91;4971692;28;20018;-46
2021/08/05 05:03:03;;;;;;;63.50;36.53;;;;;;;15.38;83.93;101159.34;4970337;28;20158;-49
2021/08/05 05:05:29;;;;;;;59.08;35.72;;;;;;;15.58;83.17;101167.25;4990098;28;20026;-46
2021/08/05 05:07:55;;;;;;;46.50;31.25;;;;;;;15.96;82.91;101161.00;4969480;28;20027;-47
2021/08/05 05:10:22;;;;;;;41.10;28.60;;;;;;;16.17;81.66;101156.50;4970060;28;20483;-49
2021/08/05 05:12:48;;;;;;;39.55;28.25;;;;;;;16.19;80.09;101162.63;4967389;28;20038;-48
2021/08/05 05:15:14;;;;;;;41.53;28.98;;;;;;;16.12;79.89;101157.41;4972668;28;20084;-47
2021/08/05 05:17:41;;;;;;;40.17;28.52;;;;;;;16.08;80.23;101166.19;4974652;28;20029;-48
2021/08/05 05:20:07;;;;;;;43.47;29.23;;;;;;;16.03;79.97;101162.72;4973214;28;20133;-53
2021/08/05 05:22:33;;;;;;;43.55;29.50;;;;;;;15.97;79.70;101160.13;4973470;28;20026;-51
2021/08/05 05:24:59;;;;;;;43.65;30.83;;;;;;;15.96;80.08;101161.00;4972969;28;20057;-48
2021/08/05 05:27:24;;;;;;;48.05;32.17;;;;;;;15.94;80.16;101163.63;4974190;28;20101;-48
2021/08/05 05:29:55;;;;;;;45.72;30.73;;;;;;;15.93;80.04;101161.88;4967259;28;20062;-49
2021/08/05 05:32:23;;;;;;;50.22;34.33;;;;;;;15.93;80.73;101167.13;4970200;28;20466;-48
2021/08/05 05:34:49;;;;;;;48.67;33.35;;;;;;;15.94;80.42;101160.13;4974072;28;20026;-50
2021/08/05 05:37:14;;;;;;;50.20;32.95;;;;;;;15.97;80.75;101161.00;4971511;28;20512;-48
2021/08/05 05:39:39;;;;;;;52.47;33.75;;;;;;;15.98;80.67;101153.97;4977296;28;20448;-51
2021/08/05 05:42:05;;;;;;;51.75;34.08;;;;;;;15.98;81.04;101157.47;4968204;28;20398;-50
2021/08/05 05:44:30;;;;;;;55.47;34.42;;;;;;;16.02;80.97;101158.34;4970488;28;20186;-49
2021/08/05 05:46:55;;;;;;;57.85;35.60;;;;;;;16.04;81.00;101153.97;4976358;28;20034;-51
2021/08/05 05:49:21;;;;;;;51.53;33.13;;;;;;;16.02;80.82;101143.44;4972562;28;20053;-51
2021/08/05 05:51:47;;;;;;;53.13;34.17;;;;;;;16.02;80.59;101151.31;4970244;28;20030;-49
2021/08/05 05:54:12;;;;;;;52.72;34.13;;;;;;;16.01;80.74;101143.44;4969814;28;20482;-50
2021/08/05 05:56:38;;;;;;;56.03;35.30;;;;;;;15.99;80.80;101138.19;4977334;28;20510;-48
2021/08/05 05:59:03;;;;;;;52.95;33.72;;;;;;;15.99;81.01;101142.56;4970946;28;20764;-50
2021/08/05 06:01:28;;;;;;;55.90;35.03;;;;;;;16.00;81.14;101144.31;4970052;28;20046;-51
2021/08/05 06:03:54;;;;;;;56.90;35.92;;;;;;;16.05;81.46;101145.16;4971079;28;20522;-48
2021/08/05 06:06:19;;;;;;;54.17;33.78;;;;;;;16.13;81.31;101146.00;4971201;28;20546;-47
2021/08/05 06:08:44;;;;;;;52.05;33.45;;;;;;;16.23;80.78;101143.31;4966580;28;20034;-49
2021/08/05 06:11:10;;;;;;;51.58;32.70;;;;;;;16.30;80.02;101145.91;4972946;28;20038;-47
2021/08/05 06:13:35;;;;;;;51.38;32.67;;;;;;;16.36;79.77;101144.13;4970405;28;20065;-48
2021/08/05 06:16:00;;;;;;;51.60;32.78;;;;;;;16.48;79.71;101146.66;4971008;28;20038;-49
2021/08/05 06:18:26;;;;;;;50.00;33.20;;;;;;;16.59;79.27;101131.72;4974232;28;20026;-46
2021/08/05 06:20:51;;;;;;;48.80;33.03;;;;;;;16.76;78.69;101136.88;4959666;28;20120;-51
2021/08/05 06:23:17;;;;;;;44.13;30.40;;;;;;;17.17;78.24;101143.53;4969784;28;20026;-47
2021/08/05 06:25:42;;;;;;;41.67;28.95;;;;;;;18.08;76.19;101145.19;4969276;28;20513;-49
2021/08/05 06:28:07;;;;;;;32.88;25.70;;;;;;;19.33;70.52;101138.84;4971704;28;20046;-48
2021/08/05 06:30:33;;;;;;;29.85;24.10;;;;;;;20.67;66.19;101139.59;4971123;28;20061;-46
2021/08/05 06:32:59;;;;;;;31.00;23.50;;;;;;;20.87;65.19;101131.13;4964502;28;20824;-46
2021/08/05 06:35:24;;;;;;;31.45;23.65;;;;;;;20.85;66.20;101130.31;4973347;28;20037;-46
2021/08/05 06:37:51;;;;;;;29.55;23.73;;;;;;;20.61;66.45;101139.72;4972535;28;20018;-48
2021/08/05 06:40:16;;;;;;;32.00;23.73;;;;;;;20.92;65.38;101126.59;4971646;28;20102;-51
2021/08/05 06:42:42;;;;;;;31.70;23.13;;;;;;;21.14;64.44;101127.78;4969732;28;20631;-53
2021/08/05 06:45:09;;;;;;;28.35;22.83;;;;;;;21.24;62.93;101128.44;4969228;28;20041;-49
2021/08/05 06:47:37;;;;;;;29.35;23.60;;;;;;;21.40;63.73;101129.78;4971319;28;20557;-48
2021/08/05 06:50:03;;;;;;;28.13;23.02;;;;;;;21.63;62.34;101124.72;4972981;28;20037;-52
2021/08/05 06:52:28;;;;;;;27.35;21.70;;;;;;;21.57;63.00;101130.19;4972675;28;20027;-48
2021/08/05 06:54:53;;;;;;;27.52;21.15;;;;;;;21.36;63.46;101130.75;4967609;28;20478;-48
2021/08/05 06:57:19;;;;;;;25.58;20.45;;;;;;;21.37;63.67;101128.06;4971420;28;20562;-50
2021/08/05 06:59:44;;;;;;;25.40;20.58;;;;;;;21.78;63.17;101128.69;4972562;28;20038;-50
2021/08/05 07:02:09;;;;;;;25.77;21.05;;;;;;;21.87;64.02;101128.44;4967883;28;20798;-49
2021/08/05 07:04:35;;;;;;;24.27;19.30;;;;;;;21.62;60.59;101128.28;4969902;28;20027;-49
2021/08/05 07:07:00;;;;;;;25.65;19.77;;;;;;;21.20;62.04;101126.78;4974269;28;20042;-47
2021/08/05 07:09:26;;;;;;;25.45;20.98;;;;;;;20.83;63.71;101124.16;4972732;28;20034;-47
2021/08/05 07:11:51;;;;;;;27.95;20.88;;;;;;;20.70;63.38;101125.38;4968158;28;20030;-49
2021/08/05 07:14:16;;;;;;;29.00;21.88;;;;;;;20.43;66.29;101129.56;4974658;28;20395;-51
2021/08/05 07:16:42;;;;;;;28.13;22.75;;;;;;;20.50;66.23;101120.53;4974760;28;20044;-48
2021/08/05 07:19:07;;;;;;;27.05;21.98;;;;;;;20.49;65.33;101121.47;4966006;28;20033;-50
2021/08/05 07:21:33;;;;;;;27.23;21.35;;;;;;;20.58;65.30;101122.13;4971955;28;20035;-46
2021/08/05 07:24:14;;;;;;;26.63;21.63;;;;;;;20.43;66.02;101121.63;4961819;28;20035;-51
2021/08/05 07:26:49;;;;;;;31.02;22.25;;;;;;;20.54;65.08;101122.22;4976640;28;20042;-51
2021/08/05 07:29:17;;;;;;;30.63;22.75;;;;;;;20.43;64.77;101116.31;4947971;28;20113;-49
2021/08/05 07:31:42;;;;;;;27.52;21.67;;;;;;;20.39;64.53;101109.34;4975355;28;20470;-49
2021/08/05 07:34:08;;;;;;;26.60;21.13;;;;;;;20.41;65.93;101113.69;4965782;28;20026;-47
2021/08/05 07:36:33;;;;;;;24.42;19.40;;;;;;;20.44;63.34;101118.91;4990092;28;20048;-49
2021/08/05 07:38:59;;;;;;;23.95;20.20;;;;;;;20.25;65.40;101113.13;4970212;28;20200;-49
2021/08/05 07:41:24;;;;;;;26.23;20.33;;;;;;;20.24;66.77;101116.72;4973761;28;20034;-50
2021/08/05 07:43:49;;;;;;;25.95;19.85;;;;;;;20.29;65.05;101119.25;4969475;28;20130;-46
2021/08/05 07:46:15;;;;;;;28.80;20.50;;;;;;;20.25;64.86;101115.78;4971914;28;20447;-46
2021/08/05 07:48:41;;;;;;;26.27;21.75;;;;;;;20.14;66.04;101104.56;4977413;28;20148;-49
2021/08/05 07:51:06;;;;;;;29.20;21.77;;;;;;;20.22;67.06;101105.28;4979512;28;20178;-47
2021/08/05 07:53:31;;;;;;;26.23;19.98;;;;;;;20.33;65.74;101101.53;4973633;28;20538;-46
2021/08/05 07:55:58;;;;;;;26.17;20.45;;;;;;;20.60;64.09;101104.41;4970812;28;20026;-48
2021/08/05 07:58:23;;;;;;;27.83;21.70;;;;;;;20.65;65.76;101104.28;4971266;28;20057;-46
2021/08/05 08:00:49;;;;;;;26.17;19.58;;;;;;;20.82;64.40;101103.88;4973586;28;20035;-46
2021/08/05 08:03:15;;;;;;;23.33;18.45;;;;;;;20.93;63.35;101105.34;4969015;28;20046;-47
2021/08/05 08:05:41;;;;;;;27.83;20.42;;;;;;;20.96;64.77;101097.31;4972834;28;20438;-48
2021/08/05 08:08:07;;;;;;;27.35;20.10;;;;;;;20.93;65.02;101102.69;4974218;28;20805;-49
2021/08/05 08:10:34;;;;;;;24.48;19.33;;;;;;;20.99;66.24;101099.00;4971952;28;20034;-47
2021/08/05 08:12:59;;;;;;;27.05;19.67;;;;;;;21.13;64.98;101096.88;4976614;28;20034;-49
2021/08/05 08:15:26;;;;;;;22.42;18.95;;;;;;;21.20;65.08;101095.84;4971819;28;20037;-48
2021/08/05 08:17:52;;;;;;;23.30;17.83;;;;;;;21.14;63.28;101108.34;4964930;28;20165;-48
2021/08/05 08:20:18;;;;;;;20.80;17.00;;;;;;;21.24;61.65;101105.44;4969760;28;20558;-49
2021/08/05 08:22:43;;;;;;;22.80;18.75;;;;;;;21.61;61.43;101101.78;4974207;28;20038;-47
2021/08/05 08:25:09;;;;;;;22.42;18.70;;;;;;;21.85;61.47;101101.94;4967373;28;20053;-48
2021/08/05 08:27:35;;;;;;;24.92;19.25;;;;;;;22.11;60.23;101102.97;4952547;28;20046;-48
2021/08/05 08:30:00;;;;;;;21.67;17.50;;;;;;;22.44;56.74;101103.72;4967515;28;20049;-49
2021/08/05 08:32:25;;;;;;;25.13;19.20;;;;;;;22.26;58.10;101095.41;4974260;28;20034;-48
2021/08/05 08:34:51;;;;;;;24.52;17.35;;;;;;;22.75;57.99;101093.00;4974160;28;20053;-48
2021/08/05 08:37:16;;;;;;;26.27;19.15;;;;;;;23.14;57.94;101088.97;4969643;28;20042;-47
2021/08/05 08:39:42;;;;;;;21.80;17.63;;;;;;;23.23;54.20;101098.44;4976163;28;20378;-46
2021/08/05 08:42:07;;;;;;;21.38;17.02;;;;;;;23.32;55.87;101092.78;4971419;28;20525;-46
2021/08/05 08:44:33;;;;;;;22.98;18.10;;;;;;;23.30;55.05;101098.13;4975034;28;20118;-47
2021/08/05 08:46:59;;;;;;;22.92;18.73;;;;;;;23.39;57.81;101094.28;4979751;28;20027;-47
2021/08/05 08:49:25;;;;;;;23.73;19.70;;;;;;;23.56;54.91;101085.72;4972604;28;20035;-48
2021/08/05 08:51:52;;;;;;;24.95;19.90;;;;;;;23.66;57.72;101084.47;4967259;28;20050;-46
2021/08/05 08:54:18;;;;;;;25.85;19.42;;;;;;;23.66;52.84;101084.47;4971887;28;20501;-48
2021/08/05 08:56:44;;;;;;;23.33;17.42;;;;;;;23.58;51.93;101090.06;4973777;28;20030;-47
2021/08/05 08:59:11;;;;;;;23.40;20.17;;;;;;;23.49;57.53;101079.75;4970432;28;20033;-49
2021/08/05 09:01:39;;;;;;;23.08;18.50;;;;;;;23.64;51.81;101087.19;4978036;28;20057;-46
2021/08/05 09:04:07;;;;;;;24.10;19.65;;;;;;;23.60;53.62;101080.25;4975478;28;20224;-46
2021/08/05 09:06:33;;;;;;;21.90;17.10;;;;;;;23.74;54.38;101069.94;4970777;28;20034;-47
2021/08/05 09:08:58;;;;;;;25.15;19.00;;;;;;;23.70;58.87;101072.78;4973007;28;20113;-50
2021/08/05 09:11:24;;;;;;;26.05;19.65;;;;;;;23.62;52.67;101065.06;4969933;28;20088;-49
2021/08/05 09:13:49;;;;;;;22.98;17.42;;;;;;;23.96;52.94;101061.13;4973634;28;20113;-48
2021/08/05 09:16:29;;;;;;;19.90;17.08;;;;;;;23.84;52.47;101070.47;4974354;28;20545;-49
2021/08/05 09:19:04;;;;;;;20.73;16.55;;;;;;;23.80;51.32;101068.84;4972235;28;20062;-51
2021/08/05 09:21:32;;;;;;;19.30;15.82;;;;;;;23.38;48.91;101057.97;4967775;28;20061;-46
2021/08/05 09:24:07;;;;;;;19.92;15.27;;;;;;;23.55;50.47;101052.91;4975282;28;20050;-51
2021/08/05 09:26:45;;;;;;;18.58;15.57;;;;;;;23.75;50.96;101046.84;4976058;28;20572;-47
2021/08/05 09:29:12;;;;;;;20.02;13.20;;;;;;;23.77;52.02;101045.00;4964704;28;20324;-46
2021/08/05 09:31:44;;;;;;;18.42;14.10;;;;;;;23.94;49.06;101042.56;4977133;28;20609;-50
2021/08/05 09:34:15;;;;;;;17.75;14.45;;;;;;;23.98;49.66;101032.63;4969891;28;20065;-48
2021/08/05 09:36:42;;;;;;;17.73;14.43;;;;;;;24.15;49.38;101032.84;4980539;28;20118;-47
2021/08/05 09:39:19;;;;;;;19.73;16.48;;;;;;;24.05;47.86;101031.47;4965158;28;20026;-47
2021/08/05 09:41:59;;;;;;;19.02;15.52;;;;;;;24.11;49.39;101026.75;4989304;28;20046;-48
2021/08/05 09:44:46;;;;;;;19.35;14.90;;;;;;;23.77;51.31;101026.38;4984520;28;20476;-47
2021/08/05 09:47:12;;;;;;;22.15;16.35;;;;;;;23.62;48.64;101033.13;4976694;28;20042;-48
2021/08/05 09:49:40;;;;;;;17.80;14.65;;;;;;;23.92;48.77;101028.41;4970041;28;20093;-46
2021/08/05 09:52:11;;;;;;;20.77;16.70;;;;;;;23.93;47.71;101030.16;4973105;28;20406;-48
2021/08/05 09:54:48;;;;;;;19.65;16.90;;;;;;;24.12;46.81;101023.19;4962534;28;20030;-55
2021/08/05 09:57:23;;;;;;;20.27;15.90;;;;;;;24.35;51.35;101026.72;4963995;28;20026;-51
2021/08/05 09:59:51;;;;;;;17.60;14.95;;;;;;;24.22;46.34;101027.22;4970086;28;20086;-47
2021/08/05 10:02:17;;;;;;;19.52;14.20;;;;;;;24.54;45.63;101017.03;4965284;28;20039;-47
2021/08/05 10:04:45;;;;;;;18.27;15.63;;;;;;;24.27;46.70;101014.56;4977380;28;20478;-50
2021/08/05 10:07:11;;;;;;;17.90;15.38;;;;;;;24.30;47.64;101013.59;4974620;28;20287;-48
2021/08/05 10:09:40;;;;;;;17.33;14.45;;;;;;;24.45;49.08;101020.09;4966801;28;20042;-49
2021/08/05 10:12:23;;;;;;;17.73;15.30;;;;;;;24.45;45.78;101014.78;4965526;28;20046;-46
2021/08/05 10:14:50;;;;;;;17.02;13.90;;;;;;;24.63;48.74;101012.22;4973321;28;20366;-54
2021/08/05 10:17:17;;;;;;;18.20;14.65;;;;;;;24.72;45.02;101008.25;4986851;28;20022;-47
2021/08/05 10:19:45;;;;;;;17.40;14.18;;;;;;;24.91;48.44;101009.25;4968953;28;20061;-47
2021/08/05 10:22:13;;;;;;;19.02;16.33;;;;;;;24.98;46.99;101013.38;4970699;28;20126;-53
2021/08/05 10:24:48;;;;;;;19.95;16.95;;;;;;;24.67;47.57;101008.47;4962302;28;20482;-50
2021/08/05 10:27:15;;;;;;;19.65;16.27;;;;;;;24.71;46.91;101008.31;4974351;28;20030;-47
2021/08/05 10:29:42;;;;;;;21.08;16.85;;;;;;;24.67;44.29;101012.94;4961764;28;21143;-47
2021/08/05 10:32:10;;;;;;;19.27;16.00;;;;;;;24.77;43.75;101000.94;4972714;28;20030;-50
2021/08/05 10:34:37;;;;;;;19.67;15.13;;;;;;;24.99;45.90;101008.91;4966773;28;20486;-47
2021/08/05 10:37:04;;;;;;;14.40;12.68;;;;;;;25.24;44.13;100998.88;4965761;28;20542;-47
2021/08/05 10:39:30;;;;;;;13.82;11.18;;;;;;;25.42;45.38;100998.03;4965734;28;20030;-45
2021/08/05 10:41:58;;;;;;;13.25;10.43;;;;;;;25.51;42.28;100993.19;4965265;28;20027;-47
2021/08/05 10:44:24;;;;;;;14.77;11.40;;;;;;;25.49;43.48;100993.28;4973301;28;20208;-46
2021/08/05 10:46:51;;;;;;;12.95;10.70;;;;;;;25.81;46.94;100995.31;4960347;28;20034;-48
2021/08/05 10:49:17;;;;;;;14.38;10.75;;;;;;;25.75;43.92;100984.06;4971448;28;20042;-47
2021/08/05 10:51:42;;;;;;;15.48;10.10;;;;;;;26.13;44.51;100976.88;4957247;28;20038;-46
2021/08/05 10:54:08;;;;;;;13.45;11.80;;;;;;;26.02;39.78;100972.06;4970059;28;20125;-47
2021/08/05 10:56:34;;;;;;;14.35;10.75;;;;;;;26.03;43.35;100971.13;4973459;28;20037;-46
2021/08/05 10:59:13;;;;;;;14.10;11.70;;;;;;;25.90;40.20;100959.31;4970982;28;20031;-49
2021/08/05 11:01:53;;;;;;;12.95;10.75;;;;;;;26.12;42.98;100962.63;4967512;28;20042;-47
2021/08/05 11:04:39;;;;;;;12.68;10.07;;;;;;;26.27;44.62;100957.50;4967411;28;20031;-47
2021/08/05 11:07:27;;;;;;;15.65;12.25;;;;;;;25.59;44.55;100954.56;4971242;28;20043;-47
2021/08/05 11:10:15;;;;;;;15.15;12.40;;;;;;;24.99;48.07;100960.91;4971278;28;20442;-46